Cadys Falls, Vermont
Current Conditions -  °F | °C
As of 3:12 AM on Thursday 27 Nov 2014 (Local Time) from KMVL Reporting Station
Light Snow Light Snow  
Wind Chill: 23°   Ceiling: 2900
Heat Index: 28°   Visibility: 3mi
Dew Point: 25°   Wind: 5mph
Humidity: 88%   Direction: 10°N
Pressure: 29.9"   Gusts: NA
Location:  44.5482°N, 72.6315°W
Report Text: KMVL 270812Z AUTO 01004KT 3SM -SN BR SCT017 OVC029 M02/M04 A2990 RMK AO2 P0000 T10221039 TSNO
Loading
Personal Weather Stations






























Interactive Weather Map New forecast layout! Learn more

10-Day Weather Forecast

Advertisements
Track Severe Weather on mobile